Time;durP1;ratioP1;P1;durP2;ratioP2;P2;SDS_P1;SDS_P2;PMS_P1;PMS_P2;Temp;Humidity;BMP_temperature;BMP_pressure;BME280_temperature;BME280_humidity;BME280_pressure;Samples;Min_cycle;Max_cycle;Signal;HPM_P1;HPM_P2
2023/09/02 00:02:38;;;;;;;1.97;1.87;;;20.80;46.10;;;;;;10462733;28;20285;-77
2023/09/02 00:07:42;;;;;;;5.60;2.20;;;20.80;46.00;;;;;;10449323;28;20229;-77
2023/09/02 00:12:45;;;;;;;2.40;2.20;;;20.80;45.90;;;;;;10450571;28;20311;-77
2023/09/02 00:17:49;;;;;;;2.13;1.87;;;20.80;45.70;;;;;;10456633;28;20767;-76
2023/09/02 00:22:54;;;;;;;2.13;1.80;;;20.70;45.80;;;;;;10464576;28;20834;-77
2023/09/02 00:27:57;;;;;;;1.70;1.60;;;20.70;45.90;;;;;;10453651;28;20228;-77
2023/09/02 00:33:00;;;;;;;2.90;1.93;;;20.70;45.80;;;;;;10450659;28;20724;-76
2023/09/02 00:38:05;;;;;;;2.03;1.90;;;20.70;45.80;;;;;;10461825;28;20225;-76
2023/09/02 00:43:08;;;;;;;2.07;1.70;;;20.60;45.80;;;;;;10451776;28;20720;-76
2023/09/02 00:48:12;;;;;;;1.80;1.70;;;20.60;45.60;;;;;;10457694;28;20270;-76
2023/09/02 00:53:18;;;;;;;3.87;1.80;;;20.70;45.60;;;;;;10450816;28;20230;-76
2023/09/02 00:58:22;;;;;;;2.20;2.10;;;20.60;45.50;;;;;;10445117;28;20244;-76
2023/09/02 01:03:25;;;;;;;3.37;2.10;;;20.50;45.50;;;;;;10454964;28;20234;-76
2023/09/02 01:08:31;;;;;;;2.73;1.93;;;20.30;45.40;;;;;;10449353;28;20232;-76
2023/09/02 01:13:34;;;;;;;3.53;2.30;;;20.20;45.60;;;;;;10460323;28;20231;-76
2023/09/02 01:18:37;;;;;;;2.57;1.97;;;20.10;45.60;;;;;;10459194;28;20228;-77
2023/09/02 01:23:59;;;;;;;2.43;1.63;;;20.00;45.90;;;;;;10455951;28;20239;-76
2023/09/02 01:29:08;;;;;;;1.87;1.60;;;19.90;46.30;;;;;;10454542;28;20242;-76
2023/09/02 01:34:11;;;;;;;2.20;2.00;;;19.90;46.10;;;;;;10457217;28;20344;-76
2023/09/02 01:39:16;;;;;;;4.07;1.83;;;19.90;45.80;;;;;;10463303;28;20254;-77
2023/09/02 01:44:21;;;;;;;2.40;1.77;;;19.80;45.80;;;;;;10454394;28;20603;-77
2023/09/02 01:49:25;;;;;;;1.97;1.87;;;19.80;45.80;;;;;;10453785;28;20732;-77
2023/09/02 01:54:29;;;;;;;2.80;1.83;;;19.80;45.50;;;;;;10462800;28;20225;-76
2023/09/02 01:59:33;;;;;;;2.30;2.10;;;19.70;45.50;;;;;;10451568;28;20229;-76
2023/09/02 02:04:42;;;;;;;1.70;1.60;;;19.60;45.70;;;;;;10451389;28;20228;-77
2023/09/02 02:09:49;;;;;;;2.03;1.90;;;19.60;45.80;;;;;;10473263;28;20319;-76
2023/09/02 02:14:54;;;;;;;4.53;2.10;;;19.60;45.80;;;;;;10465907;28;20229;-77
2023/09/02 02:19:57;;;;;;;2.33;1.60;;;19.50;45.60;;;;;;10451688;28;20231;-77
2023/09/02 02:25:01;;;;;;;1.67;1.40;;;19.40;45.60;;;;;;10457167;28;20290;-77
2023/09/02 02:30:07;;;;;;;2.03;1.80;;;19.30;45.80;;;;;;10451925;28;20243;-77
2023/09/02 02:35:10;;;;;;;2.50;1.60;;;19.30;46.10;;;;;;10453245;28;20739;-77
2023/09/02 02:40:13;;;;;;;1.73;1.60;;;19.40;46.00;;;;;;10461673;28;20803;-77
2023/09/02 02:45:17;;;;;;;1.70;1.60;;;19.40;45.80;;;;;;10453336;28;20300;-77
2023/09/02 02:50:21;;;;;;;7.70;1.57;;;19.40;45.90;;;;;;10455132;28;20716;-76
2023/09/02 02:55:24;;;;;;;2.73;1.80;;;19.40;45.60;;;;;;10463019;28;20231;-76
2023/09/02 03:00:28;;;;;;;1.60;1.50;;;19.30;45.50;;;;;;10462881;28;20230;-76
2023/09/02 03:05:36;;;;;;;2.07;1.80;;;19.20;45.90;;;;;;10475783;28;20224;-77
2023/09/02 03:10:39;;;;;;;1.60;1.50;;;19.20;46.10;;;;;;10458033;28;20319;-76
2023/09/02 03:15:50;;;;;;;2.03;1.30;;;19.20;46.00;;;;;;10462644;28;20970;-76
2023/09/02 03:20:54;;;;;;;1.60;1.30;;;19.20;46.10;;;;;;10464424;28;20253;-76
2023/09/02 03:25:57;;;;;;;2.30;1.40;;;19.20;45.90;;;;;;10458940;28;20594;-77
2023/09/02 03:31:07;;;;;;;1.37;1.13;;;19.20;45.80;;;;;;10455412;28;20233;-76
2023/09/02 03:36:16;;;;;;;1.27;1.17;;;19.20;45.80;;;;;;10463532;28;20222;-77
2023/09/02 03:41:23;;;;;;;1.50;1.40;;;19.20;45.70;;;;;;10451480;28;20240;-76
2023/09/02 03:46:28;;;;;;;1.30;1.20;;;19.20;45.60;;;;;;10449887;28;20229;-76
2023/09/02 03:51:34;;;;;;;2.47;1.10;;;19.20;45.70;;;;;;10457782;28;20369;-77
2023/09/02 03:56:39;;;;;;;1.40;1.30;;;19.20;45.70;;;;;;10454089;28;20239;-76
2023/09/02 04:01:43;;;;;;;2.23;1.13;;;19.20;45.70;;;;;;10466944;28;20237;-77
2023/09/02 04:06:46;;;;;;;1.20;1.10;;;19.10;45.30;;;;;;10457598;28;20232;-76
2023/09/02 04:11:50;;;;;;;1.90;1.50;;;19.10;45.30;;;;;;10457523;28;20593;-76
2023/09/02 04:16:55;;;;;;;1.73;1.43;;;19.00;45.30;;;;;;10466164;28;20814;-77
2023/09/02 04:21:58;;;;;;;1.70;1.60;;;19.00;45.30;;;;;;10452985;28;20231;-77
2023/09/02 04:27:01;;;;;;;3.37;1.90;;;18.90;45.50;;;;;;10453080;28;20240;-76
2023/09/02 04:32:06;;;;;;;1.70;1.60;;;18.90;45.50;;;;;;10451261;28;20307;-76
2023/09/02 04:37:09;;;;;;;1.83;1.57;;;18.80;45.70;;;;;;10464404;28;20770;-77
2023/09/02 04:42:13;;;;;;;4.20;1.70;;;18.70;45.70;;;;;;10448671;28;20953;-77
2023/09/02 04:47:17;;;;;;;2.00;1.60;;;18.70;45.80;;;;;;10461043;28;20223;-77
2023/09/02 04:52:20;;;;;;;2.20;1.60;;;18.70;46.00;;;;;;10467141;28;20224;-76
2023/09/02 04:57:24;;;;;;;1.63;1.53;;;18.70;46.00;;;;;;10453890;28;20232;-76
2023/09/02 05:02:28;;;;;;;1.63;1.53;;;18.60;46.00;;;;;;10453337;28;20247;-77
2023/09/02 05:07:32;;;;;;;1.47;1.37;;;18.60;46.30;;;;;;10460992;28;20239;-76
2023/09/02 05:12:36;;;;;;;1.87;1.27;;;18.60;46.20;;;;;;10458105;28;20228;-77
2023/09/02 05:17:40;;;;;;;1.63;1.53;;;18.60;46.10;;;;;;10452964;28;20552;-77
2023/09/02 05:22:44;;;;;;;1.70;1.60;;;18.60;46.40;;;;;;10447152;28;20221;-77
2023/09/02 05:27:49;;;;;;;1.70;1.60;;;18.70;46.30;;;;;;10457146;28;20602;-77
2023/09/02 05:32:53;;;;;;;1.70;1.60;;;18.70;46.70;;;;;;10448179;28;20683;-77
2023/09/02 05:37:57;;;;;;;1.80;1.70;;;18.70;46.80;;;;;;10447177;28;20282;-76
2023/09/02 05:43:00;;;;;;;2.37;1.80;;;18.70;46.80;;;;;;10456276;28;20220;-77
2023/09/02 05:48:07;;;;;;;4.50;1.90;;;18.80;47.00;;;;;;10442385;28;20225;-76
2023/09/02 05:53:11;;;;;;;2.57;2.17;;;18.80;47.70;;;;;;10458203;28;20588;-77
2023/09/02 05:58:14;;;;;;;2.53;1.97;;;18.80;47.60;;;;;;10463905;28;20254;-77
2023/09/02 06:03:18;;;;;;;2.00;1.80;;;18.80;47.70;;;;;;10456010;28;20725;-77
2023/09/02 06:08:22;;;;;;;2.07;1.87;;;18.80;47.80;;;;;;10449165;28;20636;-77
2023/09/02 06:13:26;;;;;;;2.20;2.10;;;18.80;47.70;;;;;;10455657;28;20227;-76
2023/09/02 06:18:31;;;;;;;4.17;2.70;;;18.90;47.80;;;;;;10450671;28;20234;-77
2023/09/02 06:23:34;;;;;;;2.20;2.10;;;19.00;48.70;;;;;;10446366;28;20740;-77
2023/09/02 06:28:37;;;;;;;6.50;2.70;;;19.00;48.30;;;;;;10461942;28;20315;-76
2023/09/02 06:33:42;;;;;;;2.50;2.30;;;19.10;48.70;;;;;;10447978;28;20227;-75
2023/09/02 06:38:46;;;;;;;2.60;2.40;;;19.20;49.50;;;;;;10449109;28;20228;-76
2023/09/02 06:43:50;;;;;;;3.33;2.60;;;19.20;49.40;;;;;;10454121;28;20232;-76
2023/09/02 06:48:55;;;;;;;2.87;2.37;;;19.30;50.30;;;;;;10457873;28;21015;-75
2023/09/02 06:53:58;;;;;;;2.63;2.50;;;19.40;50.40;;;;;;10461759;28;20221;-76
2023/09/02 06:59:01;;;;;;;3.20;2.90;;;19.50;50.10;;;;;;10460756;28;20240;-76
2023/09/02 07:04:06;;;;;;;3.90;3.60;;;19.60;50.30;;;;;;10454965;28;20982;-76
2023/09/02 07:09:10;;;;;;;3.53;3.00;;;19.80;51.50;;;;;;10448886;28;20229;-75
2023/09/02 07:14:13;;;;;;;4.87;3.10;;;19.90;50.80;;;;;;10453292;28;20221;-76
2023/09/02 07:19:18;;;;;;;3.27;3.07;;;20.00;51.00;;;;;;10458895;28;20391;-75
2023/09/02 07:24:21;;;;;;;3.53;3.23;;;20.10;51.80;;;;;;10459717;28;20225;-76
2023/09/02 07:29:24;;;;;;;3.50;3.17;;;20.20;51.60;;;;;;10457383;28;20239;-76
2023/09/02 07:34:29;;;;;;;3.60;3.30;;;20.40;52.00;;;;;;10456837;28;20299;-76
2023/09/02 07:39:32;;;;;;;3.37;3.07;;;20.60;52.50;;;;;;10464934;28;21008;-76
2023/09/02 07:44:35;;;;;;;3.83;3.53;;;20.70;52.40;;;;;;10463207;28;20652;-76
2023/09/02 07:49:39;;;;;;;3.50;3.30;;;20.90;52.40;;;;;;10448419;28;20263;-76
2023/09/02 07:54:43;;;;;;;3.00;2.80;;;21.20;53.40;;;;;;10458374;28;20263;-76
2023/09/02 07:59:46;;;;;;;2.93;2.73;;;21.40;52.80;;;;;;10461916;28;20226;-76
2023/09/02 08:04:51;;;;;;;2.83;2.63;;;21.60;52.90;;;;;;10448558;28;20266;-75
2023/09/02 08:09:54;;;;;;;3.03;2.73;;;21.80;52.70;;;;;;10458516;28;20244;-76
2023/09/02 08:14:57;;;;;;;2.80;2.60;;;22.00;52.20;;;;;;10448485;28;20247;-76
2023/09/02 08:20:02;;;;;;;3.10;2.90;;;22.30;51.90;;;;;;10456722;28;20225;-76
2023/09/02 08:25:06;;;;;;;2.90;2.70;;;22.40;51.50;;;;;;10453243;28;20247;-76
2023/09/02 08:30:10;;;;;;;2.87;2.60;;;22.70;51.10;;;;;;10449853;28;20319;-76
2023/09/02 08:35:15;;;;;;;2.40;2.20;;;22.90;51.30;;;;;;10452721;28;20304;-75
2023/09/02 08:40:18;;;;;;;2.30;2.20;;;23.20;49.90;;;;;;10454184;28;20229;-76
2023/09/02 08:45:23;;;;;;;2.17;2.00;;;23.50;50.40;;;;;;10479746;28;20250;-76
2023/09/02 08:50:29;;;;;;;2.30;2.10;;;23.80;50.10;;;;;;10461806;28;20244;-76
2023/09/02 08:55:33;;;;;;;2.33;2.20;;;24.10;48.90;;;;;;10465764;28;20227;-75
2023/09/02 09:00:37;;;;;;;2.07;1.87;;;24.40;48.40;;;;;;10460328;28;20782;-76
2023/09/02 09:05:44;;;;;;;1.90;1.80;;;24.70;47.50;;;;;;10437850;28;20229;-76
2023/09/02 09:10:49;;;;;;;1.97;1.80;;;24.90;46.20;;;;;;10442136;28;20224;-76
2023/09/02 09:15:55;;;;;;;2.30;1.97;;;25.20;46.80;;;;;;10478795;28;20224;-75
2023/09/02 09:20:59;;;;;;;3.03;1.70;;;25.50;45.70;;;;;;10477825;28;20216;-76
2023/09/02 09:26:03;;;;;;;1.60;1.50;;;25.80;44.80;;;;;;10477171;28;20224;-76
2023/09/02 09:31:17;;;;;;;1.70;1.60;;;26.10;45.00;;;;;;10479406;28;20232;-76
2023/09/02 09:36:22;;;;;;;1.87;1.77;;;26.30;43.00;;;;;;10480177;28;20806;-76
2023/09/02 09:41:27;;;;;;;1.60;1.50;;;26.50;42.70;;;;;;10480123;28;20232;-76
2023/09/02 09:46:31;;;;;;;2.20;1.90;;;26.70;42.20;;;;;;10480285;28;20228;-75
2023/09/02 09:51:35;;;;;;;1.70;1.60;;;26.90;43.00;;;;;;10472495;28;20228;-76
2023/09/02 09:56:43;;;;;;;2.40;1.50;;;27.10;41.60;;;;;;10449801;28;20221;-76
2023/09/02 10:01:48;;;;;;;2.70;1.67;;;27.30;40.10;;;;;;10452534;28;20286;-76
2023/09/02 10:06:58;;;;;;;1.70;1.60;;;27.50;40.40;;;;;;10452989;28;20231;-76
2023/09/02 10:12:11;;;;;;;1.73;1.63;;;27.60;40.40;;;;;;10461712;28;20225;-75
2023/09/02 10:17:15;;;;;;;1.77;1.67;;;27.70;39.80;;;;;;10452925;28;20221;-75
2023/09/02 10:22:22;;;;;;;1.97;1.80;;;27.80;40.30;;;;;;10471510;28;20340;-75
2023/09/02 10:27:32;;;;;;;1.70;1.60;;;28.00;38.70;;;;;;10480295;28;20248;-75
2023/09/02 10:32:41;;;;;;;1.83;1.73;;;28.10;38.90;;;;;;10482841;28;20308;-75
2023/09/02 10:37:54;;;;;;;1.70;1.60;;;28.20;37.80;;;;;;10487405;28;20216;-75
2023/09/02 10:42:57;;;;;;;1.63;1.53;;;28.30;37.40;;;;;;10489595;28;20285;-75
2023/09/02 10:48:01;;;;;;;1.90;1.80;;;28.30;39.10;;;;;;10460573;28;20290;-73
2023/09/02 10:53:06;;;;;;;1.60;1.50;;;28.40;38.60;;;;;;10452163;28;20225;-74
2023/09/02 10:58:16;;;;;;;1.37;1.27;;;28.50;36.20;;;;;;10461111;28;20228;-74
2023/09/02 11:03:43;;;;;;;1.50;1.40;;;28.50;36.50;;;;;;10458699;28;20315;-73
2023/09/02 11:08:49;;;;;;;1.53;1.43;;;28.40;35.90;;;;;;10461919;28;20237;-74
2023/09/02 11:14:23;;;;;;;1.23;1.23;;;28.40;34.60;;;;;;10472582;28;20231;-74
2023/09/02 11:19:55;;;;;;;1.77;1.57;;;28.40;35.50;;;;;;10458523;28;20250;-74
2023/09/02 11:24:59;;;;;;;1.60;1.50;;;28.40;36.60;;;;;;10457386;28;20312;-74
2023/09/02 11:30:12;;;;;;;2.10;1.40;;;28.40;34.20;;;;;;10464641;28;20316;-74
2023/09/02 11:35:23;;;;;;;1.40;1.30;;;28.30;34.20;;;;;;10461957;28;20224;-74
2023/09/02 11:40:28;;;;;;;2.00;1.37;;;28.30;33.90;;;;;;10461667;28;20244;-74
2023/09/02 11:45:34;;;;;;;1.60;1.50;;;28.30;34.80;;;;;;10457769;28;20239;-74
2023/09/02 11:50:39;;;;;;;1.50;1.40;;;28.40;35.70;;;;;;10461951;28;20220;-74
2023/09/02 11:55:47;;;;;;;1.40;1.30;;;28.40;35.70;;;;;;10461463;28;20228;-74
2023/09/02 12:00:50;;;;;;;1.30;1.20;;;28.40;34.70;;;;;;10457545;28;20224;-74
2023/09/02 12:05:55;;;;;;;1.43;1.33;;;28.50;34.60;;;;;;10457910;28;20221;-76
2023/09/02 12:11:03;;;;;;;1.10;1.07;;;28.60;34.60;;;;;;10456592;28;20433;-76
2023/09/02 12:16:06;;;;;;;1.50;1.40;;;28.70;32.50;;;;;;10464144;28;20318;-75
2023/09/02 12:21:09;;;;;;;2.10;1.20;;;28.80;34.00;;;;;;10460811;28;20233;-76
2023/09/02 12:26:14;;;;;;;2.07;1.43;;;28.90;32.90;;;;;;10459393;28;20225;-76
2023/09/02 12:31:18;;;;;;;1.50;1.40;;;28.90;32.20;;;;;;10460241;28;20228;-75
2023/09/02 12:36:21;;;;;;;1.60;1.50;;;28.90;33.10;;;;;;10458694;28;20221;-76
2023/09/02 12:41:38;;;;;;;1.33;1.23;;;29.00;33.20;;;;;;10455631;28;20232;-76
2023/09/02 12:46:41;;;;;;;1.30;1.20;;;29.00;32.20;;;;;;10452455;28;20709;-75
2023/09/02 12:51:45;;;;;;;5.00;2.20;;;29.10;32.20;;;;;;10443620;28;20712;-76
2023/09/02 12:56:49;;;;;;;3.17;1.50;;;29.10;32.30;;;;;;10458793;28;20229;-76
2023/09/02 13:01:52;;;;;;;1.60;1.50;;;29.10;31.60;;;;;;10451435;28;20589;-76
2023/09/02 13:06:57;;;;;;;1.40;1.30;;;29.10;31.90;;;;;;10453376;28;20816;-76
2023/09/02 13:12:03;;;;;;;1.33;1.30;;;29.10;31.30;;;;;;10466447;28;20258;-76
2023/09/02 13:17:06;;;;;;;1.30;1.30;;;29.10;30.50;;;;;;10454932;28;20228;-76
2023/09/02 13:22:10;;;;;;;1.20;1.20;;;29.10;31.00;;;;;;10460742;28;20340;-76
2023/09/02 13:27:18;;;;;;;1.60;1.50;;;29.10;30.90;;;;;;10448800;28;20236;-75
2023/09/02 13:32:24;;;;;;;1.37;1.30;;;29.10;29.80;;;;;;10457413;28;20309;-77
2023/09/02 13:37:29;;;;;;;2.40;1.40;;;29.10;30.00;;;;;;10462954;28;20329;-76
2023/09/02 13:42:34;;;;;;;1.40;1.30;;;29.20;30.20;;;;;;10454502;28;20247;-75
2023/09/02 13:47:38;;;;;;;1.30;1.20;;;29.10;29.90;;;;;;10457656;28;20224;-75
2023/09/02 13:52:43;;;;;;;1.50;1.40;;;29.20;31.00;;;;;;10462248;28;20276;-75
2023/09/02 13:57:47;;;;;;;1.20;1.20;;;29.10;30.00;;;;;;10461788;28;20355;-75
2023/09/02 14:02:51;;;;;;;4.60;2.00;;;29.10;30.00;;;;;;10451215;28;20228;-75
2023/09/02 14:08:00;;;;;;;1.60;1.40;;;29.20;31.00;;;;;;10453195;28;20273;-75
2023/09/02 14:13:09;;;;;;;1.43;1.33;;;29.20;29.10;;;;;;10469216;28;20260;-75
2023/09/02 14:18:13;;;;;;;1.57;1.47;;;29.20;29.40;;;;;;10462753;28;20659;-75
2023/09/02 14:23:16;;;;;;;1.47;1.37;;;29.30;30.30;;;;;;10461261;28;20287;-75
2023/09/02 14:28:21;;;;;;;1.47;1.37;;;29.30;30.90;;;;;;10472881;28;20233;-74
2023/09/02 14:33:25;;;;;;;1.50;1.40;;;29.40;29.90;;;;;;10465884;28;20239;-74
2023/09/02 14:38:28;;;;;;;1.40;1.30;;;29.30;29.40;;;;;;10467427;28;20608;-74
2023/09/02 14:43:32;;;;;;;1.50;1.40;;;29.30;29.60;;;;;;10467740;28;20228;-74
2023/09/02 14:48:36;;;;;;;1.53;1.30;;;29.30;29.40;;;;;;10466759;28;20316;-74
2023/09/02 14:53:40;;;;;;;1.60;1.50;;;29.30;29.70;;;;;;10459675;28;20224;-74
2023/09/02 14:58:45;;;;;;;1.93;1.83;;;29.30;29.40;;;;;;10470797;28;21174;-74
2023/09/02 15:03:48;;;;;;;1.77;1.60;;;29.40;29.70;;;;;;10465603;28;20220;-74
2023/09/02 15:08:52;;;;;;;1.60;1.50;;;29.50;29.80;;;;;;10462098;28;20225;-74
2023/09/02 15:13:56;;;;;;;1.67;1.30;;;29.50;29.80;;;;;;10476155;28;20228;-75
2023/09/02 15:19:01;;;;;;;1.40;1.40;;;29.50;29.50;;;;;;10470880;28;20220;-74
2023/09/02 15:24:06;;;;;;;1.70;1.57;;;29.50;29.90;;;;;;10474388;28;20246;-74
2023/09/02 15:29:13;;;;;;;1.93;1.60;;;29.40;30.00;;;;;;10465550;28;20574;-75
2023/09/02 15:34:17;;;;;;;1.30;1.30;;;29.40;29.80;;;;;;10464375;28;20261;-75
2023/09/02 15:39:25;;;;;;;1.40;1.30;;;29.30;30.50;;;;;;10467853;28;20224;-74
2023/09/02 15:44:30;;;;;;;1.70;1.33;;;29.20;30.20;;;;;;10471430;28;20221;-75
2023/09/02 15:49:33;;;;;;;1.80;1.70;;;29.10;29.70;;;;;;10462069;28;20586;-75
2023/09/02 15:54:37;;;;;;;1.60;1.50;;;29.20;30.00;;;;;;10464832;28;20238;-74
2023/09/02 15:59:42;;;;;;;1.50;1.40;;;29.10;30.00;;;;;;10471730;28;20230;-75
2023/09/02 16:04:45;;;;;;;2.90;1.50;;;29.20;29.40;;;;;;10458703;28;20235;-74
2023/09/02 16:09:48;;;;;;;1.30;1.30;;;29.20;29.60;;;;;;10466422;28;20224;-74
2023/09/02 16:14:54;;;;;;;1.60;1.50;;;29.30;29.70;;;;;;10469143;28;20225;-74
2023/09/02 16:19:57;;;;;;;4.27;1.50;;;29.30;29.20;;;;;;10458022;28;20274;-74
2023/09/02 16:25:00;;;;;;;2.53;1.30;;;29.30;29.40;;;;;;10468148;28;20309;-73
2023/09/02 16:30:07;;;;;;;1.50;1.40;;;29.30;29.20;;;;;;10460966;28;20244;-75
2023/09/02 16:35:10;;;;;;;1.47;1.37;;;29.40;28.90;;;;;;10464488;28;20228;-74
2023/09/02 16:40:14;;;;;;;1.60;1.50;;;29.40;29.40;;;;;;10466631;28;20248;-73
2023/09/02 16:45:19;;;;;;;1.40;1.30;;;29.40;29.00;;;;;;10457707;28;20305;-74
2023/09/02 16:50:22;;;;;;;3.07;1.40;;;29.40;29.30;;;;;;10454512;28;20347;-74
2023/09/02 16:55:27;;;;;;;1.50;1.30;;;29.40;29.50;;;;;;10454014;28;20235;-74
2023/09/02 17:00:34;;;;;;;1.63;1.30;;;29.40;29.80;;;;;;10469680;28;20228;-75
2023/09/02 17:05:41;;;;;;;1.63;1.53;;;29.40;29.60;;;;;;10466432;28;20224;-74
2023/09/02 17:10:45;;;;;;;3.90;1.40;;;29.20;30.10;;;;;;10459690;28;20224;-74
2023/09/02 17:15:49;;;;;;;1.67;1.53;;;29.20;30.20;;;;;;10460131;28;20221;-74
2023/09/02 17:20:52;;;;;;;3.03;1.90;;;29.00;30.50;;;;;;10458838;28;20324;-74
2023/09/02 17:25:57;;;;;;;1.83;1.73;;;28.90;30.80;;;;;;10460329;28;20224;-74
2023/09/02 17:31:06;;;;;;;1.90;1.70;;;28.80;30.20;;;;;;10459318;28;20792;-74
2023/09/02 17:36:09;;;;;;;1.70;1.60;;;28.70;30.60;;;;;;10467319;28;20673;-74
2023/09/02 17:41:12;;;;;;;1.50;1.40;;;28.60;30.60;;;;;;10460274;28;20242;-74
2023/09/02 17:46:17;;;;;;;1.23;1.13;;;28.50;31.30;;;;;;10457955;28;20221;-74
2023/09/02 17:51:21;;;;;;;1.60;1.50;;;28.40;31.60;;;;;;10455733;28;20235;-74
2023/09/02 17:56:25;;;;;;;1.90;1.53;;;28.30;31.60;;;;;;10455419;28;20251;-74
2023/09/02 18:01:30;;;;;;;2.93;1.60;;;28.20;31.90;;;;;;10458331;28;20250;-75
2023/09/02 18:06:33;;;;;;;1.43;1.33;;;28.10;32.20;;;;;;10455589;28;20224;-75
2023/09/02 18:11:36;;;;;;;2.00;1.43;;;28.00;32.20;;;;;;10461876;28;20310;-75
2023/09/02 18:16:40;;;;;;;2.67;1.60;;;28.00;32.30;;;;;;10461817;28;20665;-75
2023/09/02 18:21:44;;;;;;;5.93;5.43;;;27.80;32.60;;;;;;10455055;28;20225;-76
2023/09/02 18:26:47;;;;;;;4.60;4.13;;;27.70;32.50;;;;;;10463758;28;20228;-75
2023/09/02 18:31:53;;;;;;;3.70;3.40;;;27.60;32.70;;;;;;10464313;28;20237;-75
2023/09/02 18:36:56;;;;;;;2.50;2.30;;;27.40;33.20;;;;;;10468556;28;20652;-76
2023/09/02 18:41:59;;;;;;;1.70;1.60;;;27.30;33.20;;;;;;10456293;28;20227;-75
2023/09/02 18:47:04;;;;;;;2.37;2.00;;;27.20;32.90;;;;;;10460678;28;20231;-75
2023/09/02 18:52:08;;;;;;;3.27;2.20;;;27.00;33.10;;;;;;10463541;28;20314;-75
2023/09/02 18:57:11;;;;;;;1.97;1.87;;;26.80;33.20;;;;;;10462240;28;20740;-76
2023/09/02 19:02:16;;;;;;;1.80;1.70;;;26.70;33.50;;;;;;10463320;28;20228;-75
2023/09/02 19:07:19;;;;;;;3.10;1.70;;;26.50;34.00;;;;;;10459564;28;20666;-75
2023/09/02 19:12:22;;;;;;;2.30;2.10;;;26.40;33.80;;;;;;10468253;28;20732;-75
2023/09/02 19:17:27;;;;;;;2.30;2.10;;;26.20;34.30;;;;;;10470202;28;20229;-75
2023/09/02 19:22:31;;;;;;;2.07;1.87;;;26.10;34.70;;;;;;10470867;28;20217;-75
2023/09/02 19:27:34;;;;;;;2.90;1.90;;;26.00;34.60;;;;;;10463416;28;20224;-75
2023/09/02 19:32:39;;;;;;;2.20;2.10;;;25.90;34.60;;;;;;10466983;28;20312;-75
2023/09/02 19:37:43;;;;;;;2.33;2.10;;;25.80;34.90;;;;;;10459777;28;20225;-75
2023/09/02 19:42:51;;;;;;;2.00;1.90;;;25.70;34.80;;;;;;10455703;28;20654;-75
2023/09/02 19:47:56;;;;;;;3.10;2.17;;;25.60;35.30;;;;;;10469969;28;20319;-75
2023/09/02 19:52:59;;;;;;;2.67;2.20;;;25.40;35.30;;;;;;10464613;28;20830;-75
2023/09/02 19:58:03;;;;;;;4.37;2.00;;;25.40;35.30;;;;;;10466573;28;20358;-75
2023/09/02 20:03:07;;;;;;;4.03;2.23;;;25.30;35.40;;;;;;10461850;28;20256;-75
2023/09/02 20:08:12;;;;;;;3.33;2.33;;;25.20;35.70;;;;;;10460923;28;20236;-75
2023/09/02 20:13:15;;;;;;;3.10;2.80;;;25.10;35.50;;;;;;10455177;28;20283;-75
2023/09/02 20:18:20;;;;;;;4.63;2.50;;;24.90;35.60;;;;;;10449165;28;20232;-75
2023/09/02 20:23:24;;;;;;;3.53;2.50;;;24.70;36.00;;;;;;10452269;28;20254;-75
2023/09/02 20:28:27;;;;;;;3.00;2.80;;;24.50;35.90;;;;;;10448116;28;20689;-75
2023/09/02 20:33:31;;;;;;;2.03;1.87;;;24.40;36.20;;;;;;10459625;28;20729;-75
2023/09/02 20:38:37;;;;;;;3.67;2.30;;;24.20;36.70;;;;;;10453047;28;20260;-75
2023/09/02 20:43:40;;;;;;;3.50;2.20;;;24.10;36.60;;;;;;10466234;28;20216;-76
2023/09/02 20:48:44;;;;;;;2.30;2.10;;;24.10;36.80;;;;;;10464846;28;20319;-76
2023/09/02 20:53:50;;;;;;;2.63;2.43;;;24.00;37.20;;;;;;10457204;28;20239;-76
2023/09/02 20:58:53;;;;;;;2.87;2.00;;;23.80;37.60;;;;;;10446981;28;20224;-76
2023/09/02 21:03:58;;;;;;;2.17;2.07;;;23.70;37.10;;;;;;10458452;28;20227;-76
2023/09/02 21:09:01;;;;;;;2.63;2.17;;;23.50;37.60;;;;;;10449479;28;20225;-76
2023/09/02 21:14:04;;;;;;;2.43;2.23;;;23.40;37.50;;;;;;10459793;28;20802;-76
2023/09/02 21:19:09;;;;;;;2.50;2.30;;;23.30;37.70;;;;;;10460278;28;20244;-76
2023/09/02 21:24:12;;;;;;;2.30;2.10;;;23.20;38.20;;;;;;10453250;28;20235;-76
2023/09/02 21:29:16;;;;;;;2.50;2.30;;;23.10;37.90;;;;;;10456743;28;20240;-76
2023/09/02 21:34:20;;;;;;;2.50;2.30;;;23.00;38.20;;;;;;10457287;28;20709;-76
2023/09/02 21:39:23;;;;;;;2.20;1.97;;;22.90;39.00;;;;;;10463900;28;20594;-76
2023/09/02 21:44:27;;;;;;;2.50;2.30;;;22.80;38.50;;;;;;10450335;28;20228;-76
2023/09/02 21:49:31;;;;;;;4.10;2.53;;;22.80;38.80;;;;;;10459943;28;20232;-76
2023/09/02 21:54:34;;;;;;;2.63;2.27;;;22.70;38.90;;;;;;10450036;28;20229;-76
2023/09/02 21:59:38;;;;;;;3.10;2.07;;;22.60;38.80;;;;;;10453721;28;20230;-76
2023/09/02 22:04:42;;;;;;;2.07;1.87;;;22.50;38.70;;;;;;10460136;28;20441;-76
2023/09/02 22:09:45;;;;;;;3.10;2.10;;;22.40;38.60;;;;;;10459554;28;20242;-76
2023/09/02 22:14:49;;;;;;;1.80;1.70;;;22.40;38.60;;;;;;10460212;28;20252;-76
2023/09/02 22:19:53;;;;;;;1.97;1.83;;;22.40;38.60;;;;;;10467514;28;20228;-76
2023/09/02 22:24:56;;;;;;;2.00;1.80;;;22.50;38.70;;;;;;10469027;28;20315;-76
2023/09/02 22:29:59;;;;;;;2.00;1.90;;;22.50;38.70;;;;;;10463119;28;20307;-76
2023/09/02 22:35:05;;;;;;;3.00;2.50;;;22.50;38.70;;;;;;10469478;28;20240;-76
2023/09/02 22:40:09;;;;;;;2.10;2.00;;;22.50;38.70;;;;;;10468832;28;20748;-76
2023/09/02 22:45:13;;;;;;;2.00;1.90;;;22.40;38.70;;;;;;10473472;28;20256;-76
2023/09/02 22:50:18;;;;;;;1.87;1.77;;;22.40;38.60;;;;;;10469503;28;20233;-76
2023/09/02 22:55:21;;;;;;;2.10;2.00;;;22.40;38.60;;;;;;10459868;28;20227;-76
2023/09/02 23:00:24;;;;;;;2.00;1.90;;;22.40;38.60;;;;;;10468210;28;20603;-76
2023/09/02 23:05:30;;;;;;;2.40;2.20;;;22.40;38.60;;;;;;10465109;28;20647;-76
2023/09/02 23:10:33;;;;;;;2.60;2.40;;;22.40;38.60;;;;;;10475002;28;20764;-76
2023/09/02 23:15:37;;;;;;;2.40;2.20;;;22.30;38.50;;;;;;10463730;28;20336;-76
2023/09/02 23:20:42;;;;;;;2.40;2.20;;;22.30;38.50;;;;;;10458250;28;20653;-76
2023/09/02 23:25:52;;;;;;;3.00;2.57;;;22.20;38.40;;;;;;10485039;28;20302;-76
2023/09/02 23:30:56;;;;;;;3.47;2.60;;;22.20;38.90;;;;;;10467203;28;20307;-76
2023/09/02 23:36:03;;;;;;;2.50;2.30;;;22.20;38.40;;;;;;10467155;28;20256;-76
2023/09/02 23:41:07;;;;;;;2.90;2.43;;;22.10;38.50;;;;;;10470722;28;20235;-76
2023/09/02 23:46:14;;;;;;;5.10;2.67;;;22.10;38.40;;;;;;10471107;28;20244;-76
2023/09/02 23:51:19;;;;;;;3.00;2.33;;;22.10;39.00;;;;;;10465486;28;20924;-76
2023/09/02 23:56:22;;;;;;;3.43;2.40;;;22.00;38.60;;;;;;10469528;28;20313;-76
